sensor_id;sensor_type;location;lat;lon;timestamp;P1;durP1;ratioP1;P2;durP2;ratioP2
6007;SDS011;3032;49.484;11.112;2023-05-07T00:01:52;2.70;;;2.50;;
6007;SDS011;3032;49.484;11.112;2023-05-07T00:04:18;3.30;;;2.73;;
6007;SDS011;3032;49.484;11.112;2023-05-07T00:06:43;6.00;;;2.80;;
6007;SDS011;3032;49.484;11.112;2023-05-07T00:09:09;5.07;;;3.00;;
6007;SDS011;3032;49.484;11.112;2023-05-07T00:11:35;3.40;;;2.72;;
6007;SDS011;3032;49.484;11.112;2023-05-07T00:14:01;2.83;;;2.70;;
6007;SDS011;3032;49.484;11.112;2023-05-07T00:16:26;2.63;;;2.43;;
6007;SDS011;3032;49.484;11.112;2023-05-07T00:18:52;3.00;;;2.70;;
6007;SDS011;3032;49.484;11.112;2023-05-07T00:21:18;2.50;;;2.30;;
6007;SDS011;3032;49.484;11.112;2023-05-07T00:23:44;4.57;;;2.90;;
6007;SDS011;3032;49.484;11.112;2023-05-07T00:26:09;3.70;;;2.30;;
6007;SDS011;3032;49.484;11.112;2023-05-07T00:28:35;2.60;;;2.30;;
6007;SDS011;3032;49.484;11.112;2023-05-07T00:31:00;2.73;;;2.47;;
6007;SDS011;3032;49.484;11.112;2023-05-07T00:33:26;2.50;;;2.40;;
6007;SDS011;3032;49.484;11.112;2023-05-07T00:35:52;3.33;;;2.97;;
6007;SDS011;3032;49.484;11.112;2023-05-07T00:38:19;2.65;;;2.45;;
6007;SDS011;3032;49.484;11.112;2023-05-07T00:40:45;2.73;;;2.40;;
6007;SDS011;3032;49.484;11.112;2023-05-07T00:43:10;2.57;;;2.37;;
6007;SDS011;3032;49.484;11.112;2023-05-07T00:45:37;3.33;;;2.40;;
6007;SDS011;3032;49.484;11.112;2023-05-07T00:48:03;3.35;;;2.85;;
6007;SDS011;3032;49.484;11.112;2023-05-07T00:50:29;3.05;;;2.58;;
6007;SDS011;3032;49.484;11.112;2023-05-07T00:52:57;2.55;;;2.45;;
6007;SDS011;3032;49.484;11.112;2023-05-07T00:55:23;3.22;;;3.03;;
6007;SDS011;3032;49.484;11.112;2023-05-07T00:57:49;3.23;;;2.93;;
6007;SDS011;3032;49.484;11.112;2023-05-07T01:00:15;2.58;;;2.47;;
6007;SDS011;3032;49.484;11.112;2023-05-07T01:02:42;3.05;;;2.88;;
6007;SDS011;3032;49.484;11.112;2023-05-07T01:05:09;3.67;;;3.27;;
6007;SDS011;3032;49.484;11.112;2023-05-07T01:07:40;3.13;;;2.80;;
6007;SDS011;3032;49.484;11.112;2023-05-07T01:10:07;3.50;;;3.20;;
6007;SDS011;3032;49.484;11.112;2023-05-07T01:12:34;2.65;;;2.45;;
6007;SDS011;3032;49.484;11.112;2023-05-07T01:15:01;3.97;;;3.67;;
6007;SDS011;3032;49.484;11.112;2023-05-07T01:17:28;5.45;;;3.15;;
6007;SDS011;3032;49.484;11.112;2023-05-07T01:19:54;3.40;;;3.20;;
6007;SDS011;3032;49.484;11.112;2023-05-07T01:22:29;3.17;;;2.97;;
6007;SDS011;3032;49.484;11.112;2023-05-07T01:25:02;3.45;;;3.25;;
6007;SDS011;3032;49.484;11.112;2023-05-07T01:27:29;3.45;;;3.20;;
6007;SDS011;3032;49.484;11.112;2023-05-07T01:29:54;3.63;;;3.30;;
6007;SDS011;3032;49.484;11.112;2023-05-07T01:32:23;4.23;;;3.50;;
6007;SDS011;3032;49.484;11.112;2023-05-07T01:34:53;3.85;;;3.55;;
6007;SDS011;3032;49.484;11.112;2023-05-07T01:37:20;3.65;;;3.35;;
6007;SDS011;3032;49.484;11.112;2023-05-07T01:39:47;5.28;;;3.22;;
6007;SDS011;3032;49.484;11.112;2023-05-07T01:42:13;3.70;;;3.50;;
6007;SDS011;3032;49.484;11.112;2023-05-07T01:44:38;3.37;;;3.07;;
6007;SDS011;3032;49.484;11.112;2023-05-07T01:47:04;4.13;;;3.67;;
6007;SDS011;3032;49.484;11.112;2023-05-07T01:49:31;6.50;;;3.78;;
6007;SDS011;3032;49.484;11.112;2023-05-07T01:51:57;4.23;;;3.90;;
6007;SDS011;3032;49.484;11.112;2023-05-07T01:54:26;3.92;;;3.63;;
6007;SDS011;3032;49.484;11.112;2023-05-07T01:56:58;5.90;;;3.85;;
6007;SDS011;3032;49.484;11.112;2023-05-07T01:59:23;4.28;;;3.88;;
6007;SDS011;3032;49.484;11.112;2023-05-07T02:01:49;4.90;;;3.60;;
6007;SDS011;3032;49.484;11.112;2023-05-07T02:04:14;4.13;;;3.80;;
6007;SDS011;3032;49.484;11.112;2023-05-07T02:06:40;4.97;;;4.10;;
6007;SDS011;3032;49.484;11.112;2023-05-07T02:09:05;4.40;;;4.00;;
6007;SDS011;3032;49.484;11.112;2023-05-07T02:11:31;4.97;;;4.47;;
6007;SDS011;3032;49.484;11.112;2023-05-07T02:13:57;4.23;;;3.93;;
6007;SDS011;3032;49.484;11.112;2023-05-07T02:16:22;4.07;;;3.67;;
6007;SDS011;3032;49.484;11.112;2023-05-07T02:18:48;5.72;;;4.15;;
6007;SDS011;3032;49.484;11.112;2023-05-07T02:21:14;5.00;;;4.20;;
6007;SDS011;3032;49.484;11.112;2023-05-07T02:23:40;4.37;;;4.07;;
6007;SDS011;3032;49.484;11.112;2023-05-07T02:26:05;5.73;;;4.40;;
6007;SDS011;3032;49.484;11.112;2023-05-07T02:28:31;5.47;;;4.80;;
6007;SDS011;3032;49.484;11.112;2023-05-07T02:30:56;5.33;;;4.83;;
6007;SDS011;3032;49.484;11.112;2023-05-07T02:33:24;5.18;;;4.78;;
6007;SDS011;3032;49.484;11.112;2023-05-07T02:35:50;5.20;;;4.80;;
6007;SDS011;3032;49.484;11.112;2023-05-07T02:38:16;4.95;;;4.55;;
6007;SDS011;3032;49.484;11.112;2023-05-07T02:40:42;7.63;;;4.93;;
6007;SDS011;3032;49.484;11.112;2023-05-07T02:43:08;5.70;;;5.23;;
6007;SDS011;3032;49.484;11.112;2023-05-07T02:45:33;6.13;;;5.60;;
6007;SDS011;3032;49.484;11.112;2023-05-07T02:47:59;5.77;;;5.27;;
6007;SDS011;3032;49.484;11.112;2023-05-07T02:50:24;7.07;;;5.67;;
6007;SDS011;3032;49.484;11.112;2023-05-07T02:52:51;6.78;;;6.15;;
6007;SDS011;3032;49.484;11.112;2023-05-07T02:55:17;8.03;;;5.07;;
6007;SDS011;3032;49.484;11.112;2023-05-07T02:57:42;5.77;;;5.27;;
6007;SDS011;3032;49.484;11.112;2023-05-07T03:00:14;6.20;;;5.30;;
6007;SDS011;3032;49.484;11.112;2023-05-07T03:02:42;8.40;;;5.80;;
6007;SDS011;3032;49.484;11.112;2023-05-07T03:05:08;6.90;;;5.75;;
6007;SDS011;3032;49.484;11.112;2023-05-07T03:07:35;7.50;;;6.80;;
6007;SDS011;3032;49.484;11.112;2023-05-07T03:10:00;7.22;;;6.30;;
6007;SDS011;3032;49.484;11.112;2023-05-07T03:12:26;7.83;;;6.57;;
6007;SDS011;3032;49.484;11.112;2023-05-07T03:14:51;8.87;;;6.00;;
6007;SDS011;3032;49.484;11.112;2023-05-07T03:17:17;7.30;;;6.60;;
6007;SDS011;3032;49.484;11.112;2023-05-07T03:19:42;9.30;;;7.07;;
6007;SDS011;3032;49.484;11.112;2023-05-07T03:22:08;8.33;;;7.10;;
6007;SDS011;3032;49.484;11.112;2023-05-07T03:24:34;8.07;;;7.33;;
6007;SDS011;3032;49.484;11.112;2023-05-07T03:26:59;7.03;;;6.30;;
6007;SDS011;3032;49.484;11.112;2023-05-07T03:29:26;7.75;;;7.00;;
6007;SDS011;3032;49.484;11.112;2023-05-07T03:31:51;8.97;;;6.67;;
6007;SDS011;3032;49.484;11.112;2023-05-07T03:34:17;9.20;;;6.33;;
6007;SDS011;3032;49.484;11.112;2023-05-07T03:36:47;9.30;;;5.82;;
6007;SDS011;3032;49.484;11.112;2023-05-07T03:39:15;7.68;;;6.97;;
6007;SDS011;3032;49.484;11.112;2023-05-07T03:41:41;9.83;;;7.70;;
6007;SDS011;3032;49.484;11.112;2023-05-07T03:44:07;10.10;;;7.70;;
6007;SDS011;3032;49.484;11.112;2023-05-07T03:46:33;7.87;;;7.13;;
6007;SDS011;3032;49.484;11.112;2023-05-07T03:48:59;7.72;;;6.68;;
6007;SDS011;3032;49.484;11.112;2023-05-07T03:51:24;8.33;;;7.60;;
6007;SDS011;3032;49.484;11.112;2023-05-07T03:53:50;9.20;;;7.30;;
6007;SDS011;3032;49.484;11.112;2023-05-07T03:56:18;8.68;;;7.43;;
6007;SDS011;3032;49.484;11.112;2023-05-07T03:58:44;7.85;;;7.15;;
6007;SDS011;3032;49.484;11.112;2023-05-07T04:01:09;8.00;;;7.20;;
6007;SDS011;3032;49.484;11.112;2023-05-07T04:03:35;10.43;;;7.70;;
6007;SDS011;3032;49.484;11.112;2023-05-07T04:06:01;13.07;;;8.00;;
6007;SDS011;3032;49.484;11.112;2023-05-07T04:08:26;8.40;;;7.50;;
6007;SDS011;3032;49.484;11.112;2023-05-07T04:10:58;11.37;;;8.07;;
6007;SDS011;3032;49.484;11.112;2023-05-07T04:13:24;8.57;;;7.75;;
6007;SDS011;3032;49.484;11.112;2023-05-07T04:15:51;8.43;;;7.43;;
6007;SDS011;3032;49.484;11.112;2023-05-07T04:18:17;8.40;;;7.55;;
6007;SDS011;3032;49.484;11.112;2023-05-07T04:20:43;9.87;;;8.57;;
6007;SDS011;3032;49.484;11.112;2023-05-07T04:23:08;8.73;;;7.93;;
6007;SDS011;3032;49.484;11.112;2023-05-07T04:25:34;9.07;;;8.17;;
6007;SDS011;3032;49.484;11.112;2023-05-07T04:27:59;8.93;;;8.03;;
6007;SDS011;3032;49.484;11.112;2023-05-07T04:30:25;8.23;;;7.50;;
6007;SDS011;3032;49.484;11.112;2023-05-07T04:32:51;9.20;;;8.30;;
6007;SDS011;3032;49.484;11.112;2023-05-07T04:35:17;9.35;;;8.35;;
6007;SDS011;3032;49.484;11.112;2023-05-07T04:37:43;8.60;;;7.50;;
6007;SDS011;3032;49.484;11.112;2023-05-07T04:40:08;8.70;;;7.90;;
6007;SDS011;3032;49.484;11.112;2023-05-07T04:42:35;11.10;;;7.53;;
6007;SDS011;3032;49.484;11.112;2023-05-07T04:45:00;10.60;;;9.37;;
6007;SDS011;3032;49.484;11.112;2023-05-07T04:47:27;8.25;;;7.45;;
6007;SDS011;3032;49.484;11.112;2023-05-07T04:49:52;8.60;;;7.63;;
6007;SDS011;3032;49.484;11.112;2023-05-07T04:52:18;9.37;;;8.47;;
6007;SDS011;3032;49.484;11.112;2023-05-07T04:54:43;8.93;;;8.03;;
6007;SDS011;3032;49.484;11.112;2023-05-07T04:57:09;8.97;;;8.07;;
6007;SDS011;3032;49.484;11.112;2023-05-07T04:59:34;9.17;;;8.37;;
6007;SDS011;3032;49.484;11.112;2023-05-07T05:02:00;9.97;;;8.47;;
6007;SDS011;3032;49.484;11.112;2023-05-07T05:04:26;11.00;;;8.20;;
6007;SDS011;3032;49.484;11.112;2023-05-07T05:06:52;10.07;;;9.00;;
6007;SDS011;3032;49.484;11.112;2023-05-07T05:09:17;10.00;;;8.53;;
6007;SDS011;3032;49.484;11.112;2023-05-07T05:11:43;10.33;;;9.23;;
6007;SDS011;3032;49.484;11.112;2023-05-07T05:14:09;9.40;;;8.53;;
6007;SDS011;3032;49.484;11.112;2023-05-07T05:16:34;10.33;;;7.63;;
6007;SDS011;3032;49.484;11.112;2023-05-07T05:19:01;9.75;;;8.95;;
6007;SDS011;3032;49.484;11.112;2023-05-07T05:21:27;9.05;;;8.15;;
6007;SDS011;3032;49.484;11.112;2023-05-07T05:23:52;8.40;;;7.53;;
6007;SDS011;3032;49.484;11.112;2023-05-07T05:26:18;13.13;;;8.07;;
6007;SDS011;3032;49.484;11.112;2023-05-07T05:28:43;9.50;;;8.70;;
6007;SDS011;3032;49.484;11.112;2023-05-07T05:31:09;8.07;;;7.47;;
6007;SDS011;3032;49.484;11.112;2023-05-07T05:33:35;9.33;;;8.40;;
6007;SDS011;3032;49.484;11.112;2023-05-07T05:36:00;9.03;;;8.13;;
6007;SDS011;3032;49.484;11.112;2023-05-07T05:38:26;9.50;;;8.50;;
6007;SDS011;3032;49.484;11.112;2023-05-07T05:40:52;9.90;;;8.90;;
6007;SDS011;3032;49.484;11.112;2023-05-07T05:43:17;9.60;;;8.70;;
6007;SDS011;3032;49.484;11.112;2023-05-07T05:45:43;10.00;;;9.00;;
6007;SDS011;3032;49.484;11.112;2023-05-07T05:48:08;10.07;;;9.07;;
6007;SDS011;3032;49.484;11.112;2023-05-07T05:50:34;11.10;;;9.10;;
6007;SDS011;3032;49.484;11.112;2023-05-07T05:53:02;10.38;;;8.98;;
6007;SDS011;3032;49.484;11.112;2023-05-07T05:55:28;9.17;;;8.27;;
6007;SDS011;3032;49.484;11.112;2023-05-07T05:57:54;9.57;;;8.43;;
6007;SDS011;3032;49.484;11.112;2023-05-07T06:00:19;14.30;;;8.80;;
6007;SDS011;3032;49.484;11.112;2023-05-07T06:02:47;10.65;;;9.52;;
6007;SDS011;3032;49.484;11.112;2023-05-07T06:05:13;8.95;;;8.05;;
6007;SDS011;3032;49.484;11.112;2023-05-07T06:07:39;10.00;;;9.10;;
6007;SDS011;3032;49.484;11.112;2023-05-07T06:10:05;11.60;;;9.30;;
6007;SDS011;3032;49.484;11.112;2023-05-07T06:12:31;9.77;;;8.77;;
6007;SDS011;3032;49.484;11.112;2023-05-07T06:14:57;13.30;;;9.07;;
6007;SDS011;3032;49.484;11.112;2023-05-07T06:17:22;9.40;;;8.50;;
6007;SDS011;3032;49.484;11.112;2023-05-07T06:19:48;10.50;;;7.60;;
6007;SDS011;3032;49.484;11.112;2023-05-07T06:22:13;9.70;;;8.60;;
6007;SDS011;3032;49.484;11.112;2023-05-07T06:24:39;9.20;;;8.30;;
6007;SDS011;3032;49.484;11.112;2023-05-07T06:27:04;9.27;;;8.47;;
6007;SDS011;3032;49.484;11.112;2023-05-07T06:29:30;9.83;;;8.83;;
6007;SDS011;3032;49.484;11.112;2023-05-07T06:32:05;9.63;;;8.63;;
6007;SDS011;3032;49.484;11.112;2023-05-07T06:34:32;9.38;;;8.50;;
6007;SDS011;3032;49.484;11.112;2023-05-07T06:36:58;8.63;;;7.83;;
6007;SDS011;3032;49.484;11.112;2023-05-07T06:39:23;10.10;;;9.20;;
6007;SDS011;3032;49.484;11.112;2023-05-07T06:41:49;8.07;;;7.33;;
6007;SDS011;3032;49.484;11.112;2023-05-07T06:44:15;9.40;;;8.23;;
6007;SDS011;3032;49.484;11.112;2023-05-07T06:46:40;9.93;;;8.60;;
6007;SDS011;3032;49.484;11.112;2023-05-07T06:49:06;10.17;;;9.17;;
6007;SDS011;3032;49.484;11.112;2023-05-07T06:51:32;8.60;;;7.80;;
6007;SDS011;3032;49.484;11.112;2023-05-07T06:53:58;8.90;;;8.10;;
6007;SDS011;3032;49.484;11.112;2023-05-07T06:56:23;10.80;;;8.70;;
6007;SDS011;3032;49.484;11.112;2023-05-07T06:58:49;10.15;;;8.55;;
6007;SDS011;3032;49.484;11.112;2023-05-07T07:01:15;22.63;;;7.23;;
6007;SDS011;3032;49.484;11.112;2023-05-07T07:03:41;9.20;;;7.50;;
6007;SDS011;3032;49.484;11.112;2023-05-07T07:06:06;7.93;;;7.03;;
6007;SDS011;3032;49.484;11.112;2023-05-07T07:08:32;8.03;;;7.27;;
6007;SDS011;3032;49.484;11.112;2023-05-07T07:10:58;7.93;;;7.10;;
6007;SDS011;3032;49.484;11.112;2023-05-07T07:13:23;7.80;;;7.00;;
6007;SDS011;3032;49.484;11.112;2023-05-07T07:15:49;6.97;;;6.37;;
6007;SDS011;3032;49.484;11.112;2023-05-07T07:18:14;6.60;;;6.00;;
6007;SDS011;3032;49.484;11.112;2023-05-07T07:20:40;8.30;;;7.00;;
6007;SDS011;3032;49.484;11.112;2023-05-07T07:23:06;6.90;;;6.30;;
6007;SDS011;3032;49.484;11.112;2023-05-07T07:25:31;6.83;;;6.07;;
6007;SDS011;3032;49.484;11.112;2023-05-07T07:27:57;6.93;;;6.23;;
6007;SDS011;3032;49.484;11.112;2023-05-07T07:30:23;7.90;;;6.10;;
6007;SDS011;3032;49.484;11.112;2023-05-07T07:32:48;7.27;;;6.40;;
6007;SDS011;3032;49.484;11.112;2023-05-07T07:35:14;6.47;;;5.97;;
6007;SDS011;3032;49.484;11.112;2023-05-07T07:37:39;6.20;;;5.60;;
6007;SDS011;3032;49.484;11.112;2023-05-07T07:40:05;6.63;;;6.00;;
6007;SDS011;3032;49.484;11.112;2023-05-07T07:42:31;6.03;;;5.20;;
6007;SDS011;3032;49.484;11.112;2023-05-07T07:44:57;6.33;;;5.67;;
6007;SDS011;3032;49.484;11.112;2023-05-07T07:47:22;6.90;;;6.20;;
6007;SDS011;3032;49.484;11.112;2023-05-07T07:49:48;9.20;;;6.23;;
6007;SDS011;3032;49.484;11.112;2023-05-07T07:52:13;6.70;;;6.20;;
6007;SDS011;3032;49.484;11.112;2023-05-07T07:54:39;6.50;;;5.90;;
6007;SDS011;3032;49.484;11.112;2023-05-07T07:57:05;8.00;;;7.30;;
6007;SDS011;3032;49.484;11.112;2023-05-07T07:59:30;7.23;;;6.63;;
6007;SDS011;3032;49.484;11.112;2023-05-07T08:01:56;7.70;;;7.10;;
6007;SDS011;3032;49.484;11.112;2023-05-07T08:04:22;8.30;;;7.60;;
6007;SDS011;3032;49.484;11.112;2023-05-07T08:06:47;8.60;;;7.57;;
6007;SDS011;3032;49.484;11.112;2023-05-07T08:09:13;7.43;;;6.47;;
6007;SDS011;3032;49.484;11.112;2023-05-07T08:11:39;7.03;;;6.43;;
6007;SDS011;3032;49.484;11.112;2023-05-07T08:14:05;8.13;;;6.73;;
6007;SDS011;3032;49.484;11.112;2023-05-07T08:16:30;7.90;;;6.90;;
6007;SDS011;3032;49.484;11.112;2023-05-07T08:18:56;7.10;;;6.50;;
6007;SDS011;3032;49.484;11.112;2023-05-07T08:21:22;6.73;;;6.13;;
6007;SDS011;3032;49.484;11.112;2023-05-07T08:23:48;6.63;;;5.97;;
6007;SDS011;3032;49.484;11.112;2023-05-07T08:26:13;7.43;;;6.33;;
6007;SDS011;3032;49.484;11.112;2023-05-07T08:28:39;7.27;;;6.60;;
6007;SDS011;3032;49.484;11.112;2023-05-07T08:31:04;6.97;;;6.27;;
6007;SDS011;3032;49.484;11.112;2023-05-07T08:33:30;7.00;;;6.33;;
6007;SDS011;3032;49.484;11.112;2023-05-07T08:35:56;8.43;;;6.67;;
6007;SDS011;3032;49.484;11.112;2023-05-07T08:38:21;7.43;;;5.40;;
6007;SDS011;3032;49.484;11.112;2023-05-07T08:40:47;6.20;;;5.70;;
6007;SDS011;3032;49.484;11.112;2023-05-07T08:43:13;5.80;;;5.20;;
6007;SDS011;3032;49.484;11.112;2023-05-07T08:45:40;6.45;;;5.85;;
6007;SDS011;3032;49.484;11.112;2023-05-07T08:48:10;5.95;;;5.55;;
6007;SDS011;3032;49.484;11.112;2023-05-07T08:50:40;6.07;;;5.57;;
6007;SDS011;3032;49.484;11.112;2023-05-07T08:53:06;5.67;;;5.27;;
6007;SDS011;3032;49.484;11.112;2023-05-07T08:55:32;5.43;;;5.03;;
6007;SDS011;3032;49.484;11.112;2023-05-07T08:57:58;6.07;;;5.68;;
6007;SDS011;3032;49.484;11.112;2023-05-07T09:00:24;5.90;;;5.50;;
6007;SDS011;3032;49.484;11.112;2023-05-07T09:02:50;5.13;;;4.73;;
6007;SDS011;3032;49.484;11.112;2023-05-07T09:05:16;5.15;;;4.85;;
6007;SDS011;3032;49.484;11.112;2023-05-07T09:07:42;5.33;;;4.90;;
6007;SDS011;3032;49.484;11.112;2023-05-07T09:10:07;5.77;;;5.37;;
6007;SDS011;3032;49.484;11.112;2023-05-07T09:12:33;5.50;;;5.07;;
6007;SDS011;3032;49.484;11.112;2023-05-07T09:15:01;6.13;;;4.95;;
6007;SDS011;3032;49.484;11.112;2023-05-07T09:17:27;5.60;;;5.10;;
6007;SDS011;3032;49.484;11.112;2023-05-07T09:19:53;6.83;;;5.57;;
6007;SDS011;3032;49.484;11.112;2023-05-07T09:22:19;5.33;;;4.83;;
6007;SDS011;3032;49.484;11.112;2023-05-07T09:24:48;5.23;;;4.93;;
6007;SDS011;3032;49.484;11.112;2023-05-07T09:27:14;5.40;;;5.00;;
6007;SDS011;3032;49.484;11.112;2023-05-07T09:29:40;5.90;;;5.40;;
6007;SDS011;3032;49.484;11.112;2023-05-07T09:32:07;5.53;;;5.13;;
6007;SDS011;3032;49.484;11.112;2023-05-07T09:34:33;5.25;;;4.85;;
6007;SDS011;3032;49.484;11.112;2023-05-07T09:37:04;5.57;;;5.00;;
6007;SDS011;3032;49.484;11.112;2023-05-07T09:42:05;5.38;;;4.88;;
6007;SDS011;3032;49.484;11.112;2023-05-07T09:44:31;5.23;;;4.83;;
6007;SDS011;3032;49.484;11.112;2023-05-07T09:46:58;4.82;;;4.53;;
6007;SDS011;3032;49.484;11.112;2023-05-07T09:49:25;5.20;;;4.78;;
6007;SDS011;3032;49.484;11.112;2023-05-07T09:51:57;4.97;;;4.68;;
6007;SDS011;3032;49.484;11.112;2023-05-07T09:54:25;4.95;;;4.57;;
6007;SDS011;3032;49.484;11.112;2023-05-07T09:56:52;5.82;;;5.32;;
6007;SDS011;3032;49.484;11.112;2023-05-07T09:59:18;5.70;;;5.30;;
6007;SDS011;3032;49.484;11.112;2023-05-07T10:01:46;4.60;;;4.30;;
6007;SDS011;3032;49.484;11.112;2023-05-07T10:04:12;5.40;;;5.00;;
6007;SDS011;3032;49.484;11.112;2023-05-07T10:06:39;4.68;;;4.38;;
6007;SDS011;3032;49.484;11.112;2023-05-07T10:09:05;4.60;;;4.30;;
6007;SDS011;3032;49.484;11.112;2023-05-07T10:11:32;5.30;;;4.70;;
6007;SDS011;3032;49.484;11.112;2023-05-07T10:13:59;4.45;;;4.15;;
6007;SDS011;3032;49.484;11.112;2023-05-07T10:16:26;4.40;;;4.10;;
6007;SDS011;3032;49.484;11.112;2023-05-07T10:18:56;4.78;;;4.38;;
6007;SDS011;3032;49.484;11.112;2023-05-07T10:21:23;3.97;;;3.67;;
6007;SDS011;3032;49.484;11.112;2023-05-07T10:23:53;4.72;;;4.43;;
6007;SDS011;3032;49.484;11.112;2023-05-07T10:26:35;5.20;;;4.80;;
6007;SDS011;3032;49.484;11.112;2023-05-07T10:29:04;4.38;;;3.97;;
6007;SDS011;3032;49.484;11.112;2023-05-07T10:34:07;4.55;;;4.25;;
6007;SDS011;3032;49.484;11.112;2023-05-07T10:36:39;4.30;;;4.00;;
6007;SDS011;3032;49.484;11.112;2023-05-07T10:39:05;5.00;;;4.60;;
6007;SDS011;3032;49.484;11.112;2023-05-07T10:41:31;3.85;;;3.65;;
6007;SDS011;3032;49.484;11.112;2023-05-07T10:43:57;4.30;;;4.00;;
6007;SDS011;3032;49.484;11.112;2023-05-07T10:46:26;4.43;;;4.15;;
6007;SDS011;3032;49.484;11.112;2023-05-07T10:51:30;5.38;;;4.35;;
6007;SDS011;3032;49.484;11.112;2023-05-07T10:56:38;3.60;;;3.40;;
6007;SDS011;3032;49.484;11.112;2023-05-07T11:01:52;4.32;;;3.90;;
6007;SDS011;3032;49.484;11.112;2023-05-07T11:04:18;4.55;;;4.22;;
6007;SDS011;3032;49.484;11.112;2023-05-07T11:12:17;3.70;;;3.50;;
6007;SDS011;3032;49.484;11.112;2023-05-07T11:15:01;4.70;;;4.25;;
6007;SDS011;3032;49.484;11.112;2023-05-07T11:17:32;4.20;;;3.90;;
6007;SDS011;3032;49.484;11.112;2023-05-07T11:19:59;4.20;;;3.90;;
6007;SDS011;3032;49.484;11.112;2023-05-07T11:22:47;4.47;;;3.67;;
6007;SDS011;3032;49.484;11.112;2023-05-07T11:25:17;6.13;;;3.90;;
6007;SDS011;3032;49.484;11.112;2023-05-07T11:27:44;4.07;;;3.80;;
6007;SDS011;3032;49.484;11.112;2023-05-07T11:30:09;4.27;;;3.97;;
6007;SDS011;3032;49.484;11.112;2023-05-07T11:32:41;4.25;;;3.97;;
6007;SDS011;3032;49.484;11.112;2023-05-07T11:35:07;3.57;;;3.37;;
6007;SDS011;3032;49.484;11.112;2023-05-07T11:37:33;4.00;;;3.70;;
6007;SDS011;3032;49.484;11.112;2023-05-07T11:40:05;5.03;;;4.50;;
6007;SDS011;3032;49.484;11.112;2023-05-07T11:42:33;4.15;;;3.85;;
6007;SDS011;3032;49.484;11.112;2023-05-07T11:45:00;4.93;;;3.83;;
6007;SDS011;3032;49.484;11.112;2023-05-07T11:47:29;4.60;;;4.20;;
6007;SDS011;3032;49.484;11.112;2023-05-07T11:49:55;4.30;;;4.00;;
6007;SDS011;3032;49.484;11.112;2023-05-07T11:52:21;3.70;;;3.50;;
6007;SDS011;3032;49.484;11.112;2023-05-07T11:54:52;4.60;;;4.20;;
6007;SDS011;3032;49.484;11.112;2023-05-07T11:57:20;4.32;;;4.03;;
6007;SDS011;3032;49.484;11.112;2023-05-07T11:59:45;3.90;;;3.60;;
6007;SDS011;3032;49.484;11.112;2023-05-07T12:02:16;3.75;;;3.47;;
6007;SDS011;3032;49.484;11.112;2023-05-07T12:04:42;4.95;;;3.60;;
6007;SDS011;3032;49.484;11.112;2023-05-07T12:07:11;3.93;;;3.30;;
6007;SDS011;3032;49.484;11.112;2023-05-07T12:09:41;6.13;;;4.20;;
6007;SDS011;3032;49.484;11.112;2023-05-07T12:12:07;4.78;;;3.75;;
6007;SDS011;3032;49.484;11.112;2023-05-07T12:14:33;4.20;;;3.90;;
6007;SDS011;3032;49.484;11.112;2023-05-07T12:17:06;5.65;;;4.07;;
6007;SDS011;3032;49.484;11.112;2023-05-07T12:19:33;5.25;;;4.35;;
6007;SDS011;3032;49.484;11.112;2023-05-07T12:21:59;4.05;;;3.78;;
6007;SDS011;3032;49.484;11.112;2023-05-07T12:24:27;3.55;;;3.35;;
6007;SDS011;3032;49.484;11.112;2023-05-07T12:26:53;5.83;;;4.83;;
6007;SDS011;3032;49.484;11.112;2023-05-07T12:29:22;4.47;;;4.07;;
6007;SDS011;3032;49.484;11.112;2023-05-07T12:31:49;3.75;;;3.55;;
6007;SDS011;3032;49.484;11.112;2023-05-07T12:34:15;3.97;;;3.58;;
6007;SDS011;3032;49.484;11.112;2023-05-07T12:36:40;4.00;;;3.80;;
6007;SDS011;3032;49.484;11.112;2023-05-07T12:39:06;3.80;;;3.50;;
6007;SDS011;3032;49.484;11.112;2023-05-07T12:41:36;3.95;;;3.65;;
6007;SDS011;3032;49.484;11.112;2023-05-07T12:44:18;3.60;;;3.38;;
6007;SDS011;3032;49.484;11.112;2023-05-07T12:46:43;4.30;;;3.90;;
6007;SDS011;3032;49.484;11.112;2023-05-07T12:49:11;3.90;;;3.60;;
6007;SDS011;3032;49.484;11.112;2023-05-07T12:51:37;4.03;;;3.38;;
6007;SDS011;3032;49.484;11.112;2023-05-07T12:54:03;3.70;;;3.40;;
6007;SDS011;3032;49.484;11.112;2023-05-07T12:56:30;4.37;;;3.73;;
6007;SDS011;3032;49.484;11.112;2023-05-07T12:58:59;3.67;;;3.47;;
6007;SDS011;3032;49.484;11.112;2023-05-07T13:01:28;4.30;;;3.40;;
6007;SDS011;3032;49.484;11.112;2023-05-07T13:03:57;4.18;;;3.25;;
6007;SDS011;3032;49.484;11.112;2023-05-07T13:06:25;4.55;;;3.50;;
6007;SDS011;3032;49.484;11.112;2023-05-07T13:08:51;4.50;;;4.20;;
6007;SDS011;3032;49.484;11.112;2023-05-07T13:11:17;3.87;;;3.60;;
6007;SDS011;3032;49.484;11.112;2023-05-07T13:13:42;3.70;;;3.50;;
6007;SDS011;3032;49.484;11.112;2023-05-07T13:16:09;3.90;;;3.60;;
6007;SDS011;3032;49.484;11.112;2023-05-07T13:18:37;4.25;;;3.42;;
6007;SDS011;3032;49.484;11.112;2023-05-07T13:21:04;4.05;;;3.75;;
6007;SDS011;3032;49.484;11.112;2023-05-07T13:23:29;3.70;;;3.43;;
6007;SDS011;3032;49.484;11.112;2023-05-07T13:25:55;3.53;;;3.33;;
6007;SDS011;3032;49.484;11.112;2023-05-07T13:28:21;3.50;;;3.30;;
6007;SDS011;3032;49.484;11.112;2023-05-07T13:30:50;3.65;;;3.45;;
6007;SDS011;3032;49.484;11.112;2023-05-07T13:33:17;3.50;;;3.30;;
6007;SDS011;3032;49.484;11.112;2023-05-07T13:35:43;4.25;;;3.88;;
6007;SDS011;3032;49.484;11.112;2023-05-07T13:38:09;3.63;;;3.42;;
6007;SDS011;3032;49.484;11.112;2023-05-07T13:40:34;3.53;;;3.33;;
6007;SDS011;3032;49.484;11.112;2023-05-07T13:43:00;3.80;;;3.60;;
6007;SDS011;3032;49.484;11.112;2023-05-07T13:45:29;4.03;;;3.72;;
6007;SDS011;3032;49.484;11.112;2023-05-07T13:47:55;3.90;;;3.50;;
6007;SDS011;3032;49.484;11.112;2023-05-07T13:50:21;6.18;;;3.50;;
6007;SDS011;3032;49.484;11.112;2023-05-07T13:52:47;5.25;;;3.33;;
6007;SDS011;3032;49.484;11.112;2023-05-07T13:55:17;3.80;;;3.50;;
6007;SDS011;3032;49.484;11.112;2023-05-07T13:57:46;3.80;;;3.60;;
6007;SDS011;3032;49.484;11.112;2023-05-07T14:00:12;3.70;;;3.40;;
6007;SDS011;3032;49.484;11.112;2023-05-07T14:02:39;3.60;;;3.40;;
6007;SDS011;3032;49.484;11.112;2023-05-07T14:05:05;3.42;;;3.22;;
6007;SDS011;3032;49.484;11.112;2023-05-07T14:07:31;3.88;;;3.58;;
6007;SDS011;3032;49.484;11.112;2023-05-07T14:09:57;3.80;;;3.60;;
6007;SDS011;3032;49.484;11.112;2023-05-07T14:12:22;3.60;;;3.40;;
6007;SDS011;3032;49.484;11.112;2023-05-07T14:14:48;4.07;;;3.77;;
6007;SDS011;3032;49.484;11.112;2023-05-07T14:17:15;4.55;;;3.88;;
6007;SDS011;3032;49.484;11.112;2023-05-07T14:19:41;3.83;;;3.60;;
6007;SDS011;3032;49.484;11.112;2023-05-07T14:22:07;3.90;;;3.60;;
6007;SDS011;3032;49.484;11.112;2023-05-07T14:24:33;3.63;;;3.33;;
6007;SDS011;3032;49.484;11.112;2023-05-07T14:26:59;4.07;;;3.72;;
6007;SDS011;3032;49.484;11.112;2023-05-07T14:29:24;3.90;;;3.67;;
6007;SDS011;3032;49.484;11.112;2023-05-07T14:31:50;3.80;;;3.50;;
6007;SDS011;3032;49.484;11.112;2023-05-07T14:34:16;4.57;;;4.27;;
6007;SDS011;3032;49.484;11.112;2023-05-07T14:36:41;4.77;;;4.37;;
6007;SDS011;3032;49.484;11.112;2023-05-07T14:39:08;5.10;;;4.70;;
6007;SDS011;3032;49.484;11.112;2023-05-07T14:41:34;5.03;;;4.20;;
6007;SDS011;3032;49.484;11.112;2023-05-07T14:44:00;3.87;;;3.60;;
6007;SDS011;3032;49.484;11.112;2023-05-07T14:46:26;4.28;;;3.90;;
6007;SDS011;3032;49.484;11.112;2023-05-07T14:48:52;4.43;;;4.10;;
6007;SDS011;3032;49.484;11.112;2023-05-07T14:51:17;5.27;;;4.70;;
6007;SDS011;3032;49.484;11.112;2023-05-07T14:53:43;5.33;;;4.53;;
6007;SDS011;3032;49.484;11.112;2023-05-07T14:56:09;4.40;;;4.10;;
6007;SDS011;3032;49.484;11.112;2023-05-07T14:58:35;4.10;;;3.80;;
6007;SDS011;3032;49.484;11.112;2023-05-07T15:01:00;4.40;;;4.10;;
6007;SDS011;3032;49.484;11.112;2023-05-07T15:03:26;3.77;;;3.47;;
6007;SDS011;3032;49.484;11.112;2023-05-07T15:05:52;4.37;;;4.07;;
6007;SDS011;3032;49.484;11.112;2023-05-07T15:08:18;5.07;;;4.67;;
6007;SDS011;3032;49.484;11.112;2023-05-07T15:10:43;4.80;;;4.40;;
6007;SDS011;3032;49.484;11.112;2023-05-07T15:13:09;4.30;;;4.00;;
6007;SDS011;3032;49.484;11.112;2023-05-07T15:15:36;4.20;;;3.90;;